createdAt,value
2017-11-04T00:00:02.558Z,2.38
2017-11-04T00:00:06.510Z,2.38
2017-11-04T00:00:10.988Z,2.37
2017-11-04T00:00:15.346Z,2.37
2017-11-04T00:00:19.560Z,2.37
2017-11-04T00:00:23.905Z,2.36
2017-11-04T00:00:27.856Z,2.36
2017-11-04T00:00:31.675Z,2.37
2017-11-04T00:00:35.496Z,2.36
2017-11-04T00:00:39.582Z,2.37
2017-11-04T00:00:43.536Z,2.37
2017-11-04T00:00:47.751Z,2.37
2017-11-04T00:00:51.695Z,2.36
2017-11-04T00:00:55.653Z,2.37
2017-11-04T00:00:59.861Z,2.36
2017-11-04T00:01:04.249Z,2.37
2017-11-04T00:01:08.067Z,2.36
2017-11-04T00:01:12.420Z,2.37
2017-11-04T00:01:16.499Z,2.35
2017-11-04T00:01:20.446Z,2.36
2017-11-04T00:01:24.259Z,2.36
2017-11-04T00:01:28.462Z,2.36
2017-11-04T00:01:32.287Z,2.37
2017-11-04T00:01:36.239Z,2.36
2017-11-04T00:01:40.329Z,2.35
2017-11-04T00:01:44.407Z,2.36
2017-11-04T00:01:48.623Z,2.36
2017-11-04T00:01:52.707Z,2.36
2017-11-04T00:01:56.658Z,2.37
2017-11-04T00:02:00.871Z,2.36
2017-11-04T00:02:05.473Z,2.36
2017-11-04T00:02:09.292Z,2.36
2017-11-04T00:02:13.250Z,2.37
2017-11-04T00:02:17.327Z,2.36
2017-11-04T00:02:21.402Z,2.37
2017-11-04T00:02:25.348Z,2.36
2017-11-04T00:02:29.287Z,2.37
2017-11-04T00:02:33.500Z,2.37
2017-11-04T00:02:37.722Z,2.37
2017-11-04T00:02:41.937Z,2.36
2017-11-04T00:02:45.887Z,2.37
2017-11-04T00:02:49.704Z,2.37
2017-11-04T00:02:53.817Z,2.36
2017-11-04T00:02:57.760Z,2.37
2017-11-04T00:03:01.842Z,2.37
2017-11-04T00:03:06.228Z,2.37
2017-11-04T00:03:10.452Z,2.37
2017-11-04T00:03:14.542Z,2.38
2017-11-04T00:03:18.891Z,2.36
2017-11-04T00:03:22.970Z,2.36
2017-11-04T00:03:27.058Z,2.36
2017-11-04T00:03:31.150Z,2.37
2017-11-04T00:03:35.363Z,2.37
2017-11-04T00:03:39.572Z,2.37
2017-11-04T00:03:44.054Z,2.36
2017-11-04T00:03:48.139Z,2.37
2017-11-04T00:03:52.356Z,2.36
2017-11-04T00:03:56.305Z,2.37
2017-11-04T00:04:00.652Z,2.36
2017-11-04T00:04:04.335Z,2.37
2017-11-04T00:04:08.289Z,2.36
2017-11-04T00:04:12.374Z,2.37
2017-11-04T00:04:16.713Z,2.36
2017-11-04T00:04:20.659Z,2.36
2017-11-04T00:04:24.613Z,2.36
2017-11-04T00:04:28.301Z,2.37
2017-11-04T00:04:32.138Z,2.37
2017-11-04T00:04:36.245Z,2.36
2017-11-04T00:04:40.205Z,2.36
2017-11-04T00:04:44.287Z,2.36
2017-11-04T00:04:48.373Z,2.36
2017-11-04T00:04:52.450Z,2.36
2017-11-04T00:04:56.534Z,2.36
2017-11-04T00:05:00.872Z,2.37
2017-11-04T00:05:05.144Z,2.35
2017-11-04T00:05:09.355Z,2.35
2017-11-04T00:05:13.587Z,2.36
2017-11-04T00:05:17.806Z,2.35
2017-11-04T00:05:21.767Z,2.35
2017-11-04T00:05:25.980Z,2.35
2017-11-04T00:05:29.925Z,2.35
2017-11-04T00:05:34.006Z,2.35
2017-11-04T00:05:37.958Z,2.34
2017-11-04T00:05:41.773Z,2.35
2017-11-04T00:05:45.724Z,2.33
2017-11-04T00:05:49.936Z,2.33
2017-11-04T00:05:54.017Z,2.33
2017-11-04T00:05:57.988Z,2.33
2017-11-04T00:06:02.063Z,2.32
2017-11-04T00:06:06.419Z,2.33
2017-11-04T00:06:10.235Z,2.33
2017-11-04T00:06:14.318Z,2.31
2017-11-04T00:06:18.409Z,2.32
2017-11-04T00:06:22.360Z,2.31
2017-11-04T00:06:26.432Z,2.32
2017-11-04T00:06:30.508Z,2.32
2017-11-04T00:06:34.729Z,2.31
2017-11-04T00:06:38.811Z,2.32
2017-11-04T00:06:42.887Z,2.31
2017-11-04T00:06:46.971Z,2.31
2017-11-04T00:06:51.052Z,2.3
2017-11-04T00:06:55.268Z,2.3
2017-11-04T00:06:59.241Z,2.31
2017-11-04T00:07:03.237Z,2.3
2017-11-04T00:07:07.313Z,2.3
2017-11-04T00:07:11.521Z,2.3
2017-11-04T00:07:15.611Z,2.3
2017-11-04T00:07:19.560Z,2.3
2017-11-04T00:07:23.774Z,2.3
2017-11-04T00:07:27.720Z,2.3
2017-11-04T00:07:31.668Z,2.29
2017-11-04T00:07:35.479Z,2.29
2017-11-04T00:07:39.423Z,2.3
2017-11-04T00:07:43.633Z,2.3
2017-11-04T00:07:47.713Z,2.3
2017-11-04T00:07:51.687Z,2.29
2017-11-04T00:07:55.903Z,2.29
2017-11-04T00:07:59.849Z,2.29
2017-11-04T00:08:04.229Z,2.29
2017-11-04T00:08:08.318Z,2.28
2017-11-04T00:08:12.133Z,2.29
2017-11-04T00:08:16.363Z,2.29
2017-11-04T00:08:20.455Z,2.29
2017-11-04T00:08:24.534Z,2.28
2017-11-04T00:08:28.478Z,2.28
2017-11-04T00:08:32.562Z,2.29
2017-11-04T00:08:36.641Z,2.29
2017-11-04T00:08:41.122Z,2.28
2017-11-04T00:08:45.204Z,2.28
2017-11-04T00:08:49.147Z,2.28
2017-11-04T00:08:53.091Z,2.28
2017-11-04T00:08:57.050Z,2.28
2017-11-04T00:09:00.999Z,2.28
2017-11-04T00:09:05.228Z,2.27
2017-11-04T00:09:09.315Z,2.27
2017-11-04T00:09:13.528Z,2.28
2017-11-04T00:09:17.787Z,2.27
2017-11-04T00:09:21.867Z,2.27
2017-11-04T00:09:26.088Z,2.26
2017-11-04T00:09:30.170Z,2.26
2017-11-04T00:09:34.255Z,2.26
2017-11-04T00:09:38.201Z,2.27
2017-11-04T00:09:42.421Z,2.27
2017-11-04T00:09:46.233Z,2.26
2017-11-04T00:09:49.921Z,2.25
2017-11-04T00:09:53.874Z,2.25
2017-11-04T00:09:57.959Z,2.25
2017-11-04T00:10:02.056Z,2.25
2017-11-04T00:10:06.145Z,2.24
2017-11-04T00:10:09.839Z,2.24
2017-11-04T00:10:13.645Z,2.24
2017-11-04T00:10:17.591Z,2.25
2017-11-04T00:10:21.804Z,2.24
2017-11-04T00:10:25.749Z,2.24
2017-11-04T00:10:30.095Z,2.23
2017-11-04T00:10:34.044Z,2.23
2017-11-04T00:10:38.123Z,2.23
2017-11-04T00:10:42.337Z,2.23
2017-11-04T00:10:46.678Z,2.22
2017-11-04T00:10:50.499Z,2.21
2017-11-04T00:10:54.312Z,2.22
2017-11-04T00:10:58.262Z,2.21
2017-11-04T00:11:02.213Z,2.21
2017-11-04T00:11:06.431Z,2.21
2017-11-04T00:11:10.370Z,2.2
2017-11-04T00:11:14.317Z,2.21
2017-11-04T00:11:18.403Z,2.2
2017-11-04T00:11:22.224Z,2.19
2017-11-04T00:11:26.037Z,2.2
2017-11-04T00:11:30.256Z,2.18
2017-11-04T00:11:34.072Z,2.19
2017-11-04T00:11:38.018Z,2.18
2017-11-04T00:11:42.374Z,2.19
2017-11-04T00:11:46.330Z,2.17
2017-11-04T00:11:50.675Z,2.17
2017-11-04T00:11:54.758Z,2.15
2017-11-04T00:11:58.835Z,2.16
2017-11-04T00:12:03.325Z,2.15
2017-11-04T00:12:07.545Z,2.15
2017-11-04T00:12:11.502Z,2.15
2017-11-04T00:12:15.708Z,2.14
2017-11-04T00:12:19.790Z,2.13
2017-11-04T00:12:23.996Z,2.13
2017-11-04T00:12:27.687Z,2.13
2017-11-04T00:12:31.632Z,2.12
2017-11-04T00:12:35.722Z,2.12
2017-11-04T00:12:39.669Z,2.11
2017-11-04T00:12:44.146Z,2.11
2017-11-04T00:12:47.961Z,2.1
2017-11-04T00:12:52.039Z,2.09
2017-11-04T00:12:55.985Z,2.08
2017-11-04T00:13:00.328Z,2.09
2017-11-04T00:13:04.285Z,2.09
2017-11-04T00:13:08.225Z,2.08
2017-11-04T00:13:12.306Z,2.08
2017-11-04T00:13:16.394Z,2.06
2017-11-04T00:13:20.472Z,2.06
2017-11-04T00:13:24.286Z,2.07
2017-11-04T00:13:28.372Z,2.05
2017-11-04T00:13:32.449Z,2.05
2017-11-04T00:13:36.793Z,2.04
2017-11-04T00:13:40.738Z,2.04
2017-11-04T00:13:44.822Z,2.04
2017-11-04T00:13:49.165Z,2.04
2017-11-04T00:13:53.114Z,2.03
2017-11-04T00:13:56.929Z,2.01
2017-11-04T00:14:00.883Z,2.01
2017-11-04T00:14:04.875Z,2.01
2017-11-04T00:14:09.093Z,2.01
2017-11-04T00:14:13.321Z,1.99
2017-11-04T00:14:17.135Z,2
2017-11-04T00:14:21.083Z,2
2017-11-04T00:14:25.307Z,1.98
2017-11-04T00:14:29.387Z,1.98
2017-11-04T00:14:33.472Z,1.98
2017-11-04T00:14:37.865Z,1.98
2017-11-04T00:14:41.942Z,1.97
2017-11-04T00:14:46.154Z,1.96
2017-11-04T00:14:50.107Z,1.97
2017-11-04T00:15:26.422Z,1.92
2017-11-04T00:15:30.641Z,1.91
2017-11-04T00:15:34.459Z,1.92
2017-11-04T00:15:38.800Z,1.91
2017-11-04T00:15:42.743Z,1.91
2017-11-04T00:15:46.844Z,1.89
2017-11-04T00:15:50.930Z,1.9
2017-11-04T00:15:55.275Z,1.89
2017-11-04T00:15:59.363Z,1.87
2017-11-04T00:16:03.446Z,1.87
2017-11-04T00:16:07.526Z,1.89
2017-11-04T00:16:11.748Z,1.87
2017-11-04T00:16:15.831Z,1.86
2017-11-04T00:16:19.914Z,1.87
2017-11-04T00:16:24.000Z,1.86
2017-11-04T00:16:27.830Z,1.86
2017-11-04T00:16:32.176Z,1.85
2017-11-04T00:16:36.130Z,1.86
2017-11-04T00:16:40.348Z,1.85
2017-11-04T00:16:44.417Z,1.85
2017-11-04T00:16:48.365Z,1.84
2017-11-04T00:16:52.319Z,1.84
2017-11-04T00:16:56.265Z,1.83
2017-11-04T00:17:00.226Z,1.82
2017-11-04T00:17:04.175Z,1.83
2017-11-04T00:17:08.385Z,1.82
2017-11-04T00:17:12.466Z,1.83
2017-11-04T00:17:16.419Z,1.82
2017-11-04T00:17:20.498Z,1.82
2017-11-04T00:17:24.450Z,1.82
2017-11-04T00:17:28.402Z,1.82
2017-11-04T00:17:32.609Z,1.82
2017-11-04T00:17:36.691Z,1.81
2017-11-04T00:17:40.791Z,1.8
2017-11-04T00:17:44.474Z,1.79
2017-11-04T00:17:48.690Z,1.8
2017-11-04T00:17:52.767Z,1.78
2017-11-04T00:17:56.584Z,1.79
2017-11-04T00:18:00.832Z,1.79
2017-11-04T00:18:04.885Z,1.78
2017-11-04T00:18:08.834Z,1.78
2017-11-04T00:18:12.516Z,1.77
2017-11-04T00:18:16.463Z,1.78
2017-11-04T00:18:20.412Z,1.77
2017-11-04T00:18:24.494Z,1.77
2017-11-04T00:18:28.574Z,1.77
2017-11-04T00:18:32.655Z,1.77
2017-11-04T00:18:36.768Z,1.76
2017-11-04T00:18:40.842Z,1.76
2017-11-04T00:18:45.049Z,1.76
2017-11-04T00:18:49.124Z,1.76
2017-11-04T00:18:52.951Z,1.76
2017-11-04T00:18:56.902Z,1.75
2017-11-04T00:19:00.985Z,1.74
2017-11-04T00:19:05.255Z,1.75
2017-11-04T00:19:09.336Z,1.75
2017-11-04T00:19:13.281Z,1.75
2017-11-04T00:19:17.369Z,1.75
2017-11-04T00:19:21.590Z,1.73
2017-11-04T00:19:25.669Z,1.74
2017-11-04T00:19:29.494Z,1.74
2017-11-04T00:19:33.710Z,1.74
2017-11-04T00:19:37.665Z,1.74
2017-11-04T00:19:41.753Z,1.74
2017-11-04T00:19:46.102Z,1.74
2017-11-04T00:19:50.321Z,1.73
2017-11-04T00:19:54.265Z,1.74
2017-11-04T00:19:58.239Z,1.73
2017-11-04T00:20:02.474Z,1.73
2017-11-04T00:20:06.427Z,1.72
2017-11-04T00:20:10.243Z,1.73
2017-11-04T00:20:14.326Z,1.73
2017-11-04T00:20:18.411Z,1.73
2017-11-04T00:20:22.624Z,1.72
2017-11-04T00:20:26.435Z,1.72
2017-11-04T00:20:30.382Z,1.72
2017-11-04T00:20:34.467Z,1.73
2017-11-04T00:20:38.682Z,1.73
2017-11-04T00:20:42.892Z,1.72
2017-11-04T00:20:46.975Z,1.71
2017-11-04T00:20:50.925Z,1.72
2017-11-04T00:20:55.134Z,1.72
2017-11-04T00:20:59.208Z,1.72
2017-11-04T00:21:03.208Z,1.72
2017-11-04T00:21:07.292Z,1.72
2017-11-04T00:21:11.245Z,1.71
2017-11-04T00:21:15.327Z,1.72
2017-11-04T00:21:19.149Z,1.71
2017-11-04T00:21:23.222Z,1.71
2017-11-04T00:21:27.191Z,1.71
2017-11-04T00:21:31.142Z,1.71
2017-11-04T00:21:34.968Z,1.71
2017-11-04T00:21:38.799Z,1.71
2017-11-04T00:21:42.737Z,1.71
2017-11-04T00:21:46.421Z,1.7
2017-11-04T00:21:50.238Z,1.71
2017-11-04T00:21:54.317Z,1.71
2017-11-04T00:21:58.399Z,1.72
2017-11-04T00:22:02.352Z,1.71
2017-11-04T00:22:06.298Z,1.71
2017-11-04T00:22:10.385Z,1.71
2017-11-04T00:22:14.329Z,1.71
2017-11-04T00:22:18.416Z,1.71
2017-11-04T00:22:22.503Z,1.71
2017-11-04T00:22:26.441Z,1.71
2017-11-04T00:22:30.524Z,1.71
2017-11-04T00:22:34.475Z,1.71
2017-11-04T00:22:38.691Z,1.72
2017-11-04T00:22:42.640Z,1.72
2017-11-04T00:22:47.010Z,1.72
2017-11-04T00:22:50.959Z,1.72
2017-11-04T00:22:54.773Z,1.71
2017-11-04T00:22:59.132Z,1.71
2017-11-04T00:23:03.217Z,1.72
2017-11-04T00:23:07.293Z,1.72
2017-11-04T00:23:11.522Z,1.72
2017-11-04T00:23:15.610Z,1.73
2017-11-04T00:23:19.696Z,1.72
2017-11-04T00:23:23.514Z,1.72
2017-11-04T00:23:27.330Z,1.72
2017-11-04T00:23:31.400Z,1.72
2017-11-04T00:23:35.757Z,1.71
2017-11-04T00:23:39.574Z,1.72
2017-11-04T00:23:43.517Z,1.72
2017-11-04T00:23:47.600Z,1.73
2017-11-04T00:23:51.285Z,1.72
2017-11-04T00:23:55.236Z,1.72
2017-11-04T00:23:59.311Z,1.72
2017-11-04T00:24:03.471Z,1.72
2017-11-04T00:24:07.548Z,1.72
2017-11-04T00:24:11.626Z,1.73
2017-11-04T00:24:15.859Z,1.72
2017-11-04T00:24:19.819Z,1.72
2017-11-04T00:24:23.901Z,1.72
2017-11-04T00:24:27.849Z,1.72
2017-11-04T00:24:31.934Z,1.72
2017-11-04T00:24:36.273Z,1.73
2017-11-04T00:24:40.482Z,1.72
2017-11-04T00:24:44.166Z,1.73
2017-11-04T00:24:48.117Z,1.73
2017-11-04T00:24:52.330Z,1.73
2017-11-04T00:24:56.279Z,1.73
2017-11-04T00:25:00.480Z,1.73
2017-11-04T00:25:04.552Z,1.73
2017-11-04T00:25:08.765Z,1.73
2017-11-04T00:25:12.845Z,1.73
2017-11-04T00:25:17.195Z,1.74
2017-11-04T00:25:21.544Z,1.74
2017-11-04T00:25:25.752Z,1.74
2017-11-04T00:25:29.567Z,1.74
2017-11-04T00:25:33.651Z,1.74
2017-11-04T00:25:37.596Z,1.74
2017-11-04T00:25:41.673Z,1.74
2017-11-04T00:25:45.750Z,1.75
2017-11-04T00:25:49.438Z,1.74
2017-11-04T00:25:53.787Z,1.75
2017-11-04T00:25:57.736Z,1.75
2017-11-04T00:26:01.676Z,1.76
2017-11-04T00:26:05.763Z,1.76
2017-11-04T00:26:09.445Z,1.76
2017-11-04T00:26:13.393Z,1.75
2017-11-04T00:26:17.602Z,1.76
2017-11-04T00:26:21.419Z,1.76
2017-11-04T00:26:25.517Z,1.76
2017-11-04T00:26:29.590Z,1.77
2017-11-04T00:26:33.667Z,1.77
2017-11-04T00:26:37.755Z,1.77
2017-11-04T00:26:41.962Z,1.77
2017-11-04T00:26:46.172Z,1.78
2017-11-04T00:26:49.995Z,1.77
2017-11-04T00:26:53.805Z,1.77
2017-11-04T00:26:57.755Z,1.78
2017-11-04T00:27:01.736Z,1.78
2017-11-04T00:27:05.688Z,1.78
2017-11-04T00:27:09.627Z,1.78
2017-11-04T00:27:13.573Z,1.79
2017-11-04T00:27:17.522Z,1.79
2017-11-04T00:27:21.737Z,1.79
2017-11-04T00:27:25.818Z,1.79
2017-11-04T00:27:29.905Z,1.79
2017-11-04T00:27:34.122Z,1.79
2017-11-04T00:27:37.934Z,1.8
2017-11-04T00:27:42.280Z,1.8
2017-11-04T00:27:46.491Z,1.8
2017-11-04T00:27:50.709Z,1.81
2017-11-04T00:27:54.922Z,1.82
2017-11-04T00:27:58.869Z,1.82
2017-11-04T00:28:02.952Z,1.82
2017-11-04T00:28:07.033Z,1.82
2017-11-04T00:28:11.381Z,1.82
2017-11-04T00:28:15.332Z,1.82
2017-11-04T00:28:19.548Z,1.82
2017-11-04T00:28:23.628Z,1.82
2017-11-04T00:28:27.573Z,1.82
2017-11-04T00:28:31.662Z,1.83
2017-11-04T00:28:35.482Z,1.83
2017-11-04T00:28:39.696Z,1.83
2017-11-04T00:28:43.644Z,1.83
2017-11-04T00:28:47.468Z,1.83
2017-11-04T00:28:51.550Z,1.84
2017-11-04T00:28:55.366Z,1.83
2017-11-04T00:28:59.313Z,1.84
2017-11-04T00:29:03.618Z,1.85
2017-11-04T00:29:07.578Z,1.85
2017-11-04T00:29:11.654Z,1.85
2017-11-04T00:29:15.743Z,1.85
2017-11-04T00:29:19.841Z,1.85
2017-11-04T00:29:23.787Z,1.85
2017-11-04T00:29:27.735Z,1.84
2017-11-04T00:29:31.552Z,1.85
2017-11-04T00:29:35.499Z,1.86
2017-11-04T00:29:39.451Z,1.85
2017-11-04T00:29:43.798Z,1.87
2017-11-04T00:29:47.745Z,1.86
2017-11-04T00:29:51.829Z,1.86
2017-11-04T00:29:55.643Z,1.86
2017-11-04T00:29:59.988Z,1.86
2017-11-04T00:30:04.337Z,1.86
2017-11-04T00:30:08.421Z,1.87
2017-11-04T00:30:12.501Z,1.87
2017-11-04T00:30:16.457Z,1.87
2017-11-04T00:30:20.547Z,1.88
2017-11-04T00:30:24.629Z,1.87
2017-11-04T00:30:28.836Z,1.88
2017-11-04T00:30:33.062Z,1.88
2017-11-04T00:30:37.016Z,1.88
2017-11-04T00:30:41.217Z,1.88
2017-11-04T00:30:45.422Z,1.89
2017-11-04T00:30:49.641Z,1.88
2017-11-04T00:30:53.720Z,1.89
2017-11-04T00:30:57.668Z,1.88
2017-11-04T00:31:01.882Z,1.89
2017-11-04T00:31:06.410Z,1.88
2017-11-04T00:31:10.356Z,1.89
2017-11-04T00:31:14.575Z,1.89
2017-11-04T00:31:18.396Z,1.9
2017-11-04T00:31:22.741Z,1.9
2017-11-04T00:31:26.684Z,1.89
2017-11-04T00:31:30.502Z,1.89
2017-11-04T00:31:34.716Z,1.9
2017-11-04T00:31:38.928Z,1.9
2017-11-04T00:31:43.013Z,1.91
2017-11-04T00:31:47.094Z,1.91
2017-11-04T00:31:51.172Z,1.9
2017-11-04T00:31:55.399Z,1.91
2017-11-04T00:31:59.633Z,1.91
2017-11-04T00:32:03.579Z,1.92
2017-11-04T00:32:07.939Z,1.92
2017-11-04T00:32:12.022Z,1.92
2017-11-04T00:32:15.966Z,1.92
2017-11-04T00:32:20.178Z,1.92
2017-11-04T00:32:24.126Z,1.92
2017-11-04T00:32:28.204Z,1.93
2017-11-04T00:32:32.425Z,1.92
2017-11-04T00:32:36.806Z,1.92
2017-11-04T00:32:40.752Z,1.93
2017-11-04T00:32:44.436Z,1.93
2017-11-04T00:32:48.657Z,1.94
2017-11-04T00:32:52.592Z,1.94
2017-11-04T00:32:56.810Z,1.94
2017-11-04T00:33:01.028Z,1.95
2017-11-04T00:33:04.989Z,1.95
2017-11-04T00:33:08.940Z,1.94
2017-11-04T00:33:13.020Z,1.95
2017-11-04T00:33:16.835Z,1.94
2017-11-04T00:33:21.054Z,1.95
2017-11-04T00:33:25.409Z,1.95
2017-11-04T00:33:29.357Z,1.96
2017-11-04T00:33:33.566Z,1.96
2017-11-04T00:33:37.944Z,1.96
2017-11-04T00:33:41.896Z,1.97
2017-11-04T00:33:45.854Z,1.97
2017-11-04T00:33:49.796Z,1.96
2017-11-04T00:33:53.876Z,1.97
2017-11-04T00:33:57.556Z,1.97
2017-11-04T00:34:01.787Z,1.97
2017-11-04T00:34:05.855Z,1.97
2017-11-04T00:34:09.939Z,1.98
2017-11-04T00:34:13.630Z,1.98
2017-11-04T00:34:17.443Z,1.98
2017-11-04T00:34:21.516Z,1.98
2017-11-04T00:34:25.606Z,1.99
2017-11-04T00:34:29.816Z,1.98
2017-11-04T00:34:33.898Z,1.98
2017-11-04T00:34:38.103Z,1.98
2017-11-04T00:34:42.048Z,1.99
2017-11-04T00:34:46.268Z,1.99
2017-11-04T00:34:50.349Z,1.98
2017-11-04T00:34:54.561Z,1.98
2017-11-04T00:34:58.908Z,1.99
2017-11-04T00:35:03.311Z,1.99
2017-11-04T00:35:07.265Z,1.99
2017-11-04T00:35:11.090Z,1.99
2017-11-04T00:35:15.038Z,1.99
2017-11-04T00:35:19.110Z,1.99
2017-11-04T00:35:23.327Z,2
2017-11-04T00:35:27.283Z,1.99
2017-11-04T00:35:31.368Z,1.99
2017-11-04T00:35:35.447Z,2
2017-11-04T00:35:39.552Z,2
2017-11-04T00:35:43.764Z,2.01
2017-11-04T00:35:48.099Z,1.99
2017-11-04T00:35:52.181Z,2
2017-11-04T00:35:56.386Z,2
2017-11-04T00:36:00.334Z,2.01
2017-11-04T00:36:04.386Z,2.01
2017-11-04T00:36:08.343Z,2.01
2017-11-04T00:36:12.553Z,2.02
2017-11-04T00:36:16.503Z,2.01
2017-11-04T00:36:20.856Z,2.02
2017-11-04T00:36:24.932Z,2.02
2017-11-04T00:36:29.015Z,2.03
2017-11-04T00:36:32.974Z,2.02
2017-11-04T00:36:36.921Z,2.02
2017-11-04T00:36:40.873Z,2.02
2017-11-04T00:36:44.968Z,2.03
2017-11-04T00:36:49.040Z,2.03
2017-11-04T00:36:53.373Z,2.03
2017-11-04T00:36:57.593Z,2.03
2017-11-04T00:37:01.807Z,2.04
2017-11-04T00:37:06.168Z,2.04
2017-11-04T00:37:10.388Z,2.04
2017-11-04T00:37:14.475Z,2.03
2017-11-04T00:37:18.425Z,2.05
2017-11-04T00:37:22.647Z,2.04
2017-11-04T00:37:26.736Z,2.04
2017-11-04T00:37:30.813Z,2.05
2017-11-04T00:37:34.887Z,2.05
2017-11-04T00:37:38.702Z,2.05
2017-11-04T00:37:43.038Z,2.06
2017-11-04T00:37:47.251Z,2.07
2017-11-04T00:37:51.339Z,2.06
2017-11-04T00:37:55.550Z,2.06
2017-11-04T00:37:59.759Z,2.06
2017-11-04T00:38:03.704Z,2.06
2017-11-04T00:38:07.656Z,2.06
2017-11-04T00:38:11.467Z,2.07
2017-11-04T00:38:15.414Z,2.07
2017-11-04T00:38:19.503Z,2.08
2017-11-04T00:38:23.715Z,2.09
2017-11-04T00:38:27.794Z,2.08
2017-11-04T00:38:31.880Z,2.09
2017-11-04T00:38:36.221Z,2.09
2017-11-04T00:38:40.038Z,2.09
2017-11-04T00:38:44.117Z,2.09
2017-11-04T00:38:48.374Z,2.1
2017-11-04T00:38:52.192Z,2.1
2017-11-04T00:38:55.873Z,2.1
2017-11-04T00:39:00.100Z,2.1
2017-11-04T00:39:04.228Z,2.1
2017-11-04T00:39:08.302Z,2.1
2017-11-04T00:39:12.521Z,2.11
2017-11-04T00:39:16.862Z,2.11
2017-11-04T00:39:20.675Z,2.11
2017-11-04T00:39:24.626Z,2.1
2017-11-04T00:39:28.836Z,2.11
2017-11-04T00:39:32.916Z,2.1
2017-11-04T00:39:36.865Z,2.11
2017-11-04T00:39:40.547Z,2.11
2017-11-04T00:39:44.636Z,2.12
2017-11-04T00:39:48.580Z,2.12
2017-11-04T00:39:52.933Z,2.12
2017-11-04T00:39:57.011Z,2.12
2017-11-04T00:40:00.826Z,2.12
2017-11-04T00:40:04.912Z,2.12
2017-11-04T00:40:08.993Z,2.12
2017-11-04T00:40:12.678Z,2.13
2017-11-04T00:40:17.026Z,2.13
2017-11-04T00:40:21.236Z,2.13
2017-11-04T00:40:25.052Z,2.12
2017-11-04T00:40:29.141Z,2.13
2017-11-04T00:40:33.227Z,2.13
2017-11-04T00:40:37.176Z,2.13
2017-11-04T00:40:40.989Z,2.14
2017-11-04T00:40:45.211Z,2.14
2017-11-04T00:40:49.289Z,2.14
2017-11-04T00:40:53.636Z,2.14
2017-11-04T00:40:57.717Z,2.14
2017-11-04T00:41:01.739Z,2.14
2017-11-04T00:41:05.560Z,2.15
2017-11-04T00:41:09.378Z,2.15
2017-11-04T00:41:13.459Z,2.15
2017-11-04T00:41:17.808Z,2.16
2017-11-04T00:41:22.028Z,2.15
2017-11-04T00:41:26.113Z,2.15
2017-11-04T00:41:30.318Z,2.15
2017-11-04T00:41:33.999Z,2.16
2017-11-04T00:41:37.946Z,2.15
2017-11-04T00:41:41.628Z,2.16
2017-11-04T00:41:45.702Z,2.16
2017-11-04T00:41:49.921Z,2.17
2017-11-04T00:41:53.875Z,2.17
2017-11-04T00:41:57.961Z,2.18
2017-11-04T00:42:02.167Z,2.18
2017-11-04T00:42:06.116Z,2.17
2017-11-04T00:42:10.457Z,2.17
2017-11-04T00:42:14.274Z,2.18
2017-11-04T00:42:18.226Z,2.18
2017-11-04T00:42:22.303Z,2.19
2017-11-04T00:42:26.379Z,2.18
2017-11-04T00:42:30.330Z,2.18
2017-11-04T00:42:34.422Z,2.19
2017-11-04T00:42:38.498Z,2.2
2017-11-04T00:42:42.718Z,2.2
2017-11-04T00:42:46.533Z,2.2
2017-11-04T00:42:50.475Z,2.2
2017-11-04T00:42:54.287Z,2.21
2017-11-04T00:42:58.497Z,2.2
2017-11-04T00:43:02.448Z,2.2
2017-11-04T00:43:06.927Z,2.21
2017-11-04T00:43:11.006Z,2.21
2017-11-04T00:43:15.250Z,2.21
2017-11-04T00:43:19.199Z,2.22
2017-11-04T00:43:23.152Z,2.22
2017-11-04T00:43:27.363Z,2.21
2017-11-04T00:43:31.312Z,2.22
2017-11-04T00:43:35.266Z,2.22
2017-11-04T00:43:39.221Z,2.23
2017-11-04T00:43:43.301Z,2.23
2017-11-04T00:43:47.379Z,2.23
2017-11-04T00:43:51.349Z,2.24
2017-11-04T00:43:55.564Z,2.23
2017-11-04T00:43:59.644Z,2.23
2017-11-04T00:44:03.990Z,2.24
2017-11-04T00:44:08.077Z,2.24
2017-11-04T00:44:11.764Z,2.24
2017-11-04T00:44:16.110Z,2.25
2017-11-04T00:44:20.188Z,2.24
2017-11-04T00:44:24.536Z,2.25
2017-11-04T00:44:28.764Z,2.25
2017-11-04T00:44:32.581Z,2.25
2017-11-04T00:44:36.530Z,2.26
2017-11-04T00:44:40.736Z,2.26
2017-11-04T00:44:44.954Z,2.27
2017-11-04T00:44:49.170Z,2.27
2017-11-04T00:44:53.383Z,2.27
2017-11-04T00:44:57.202Z,2.27
2017-11-04T00:45:00.887Z,2.27
2017-11-04T00:45:05.357Z,2.28
2017-11-04T00:45:09.458Z,2.27
2017-11-04T00:45:13.667Z,2.28
2017-11-04T00:45:17.878Z,2.27
2017-11-04T00:45:22.093Z,2.28
2017-11-04T00:45:26.183Z,2.29
2017-11-04T00:45:30.254Z,2.29
2017-11-04T00:45:34.218Z,2.29
2017-11-04T00:45:38.167Z,2.29
2017-11-04T00:45:42.373Z,2.29
2017-11-04T00:45:46.325Z,2.29
2017-11-04T00:45:50.289Z,2.29
2017-11-04T00:45:54.275Z,2.3
2017-11-04T00:45:58.354Z,2.3
2017-11-04T00:46:02.170Z,2.3
2017-11-04T00:46:06.119Z,2.3
2017-11-04T00:46:10.328Z,2.31
2017-11-04T00:46:14.273Z,2.31
2017-11-04T00:46:18.223Z,2.29
2017-11-04T00:46:22.310Z,2.32
2017-11-04T00:46:26.386Z,2.3
2017-11-04T00:46:30.473Z,2.31
2017-11-04T00:46:34.557Z,2.31
2017-11-04T00:46:38.910Z,2.32
2017-11-04T00:46:42.856Z,2.32
2017-11-04T00:46:47.083Z,2.33
2017-11-04T00:46:51.290Z,2.32
2017-11-04T00:46:55.363Z,2.32
2017-11-04T00:46:59.443Z,2.33
2017-11-04T00:47:03.524Z,2.33
2017-11-04T00:47:07.595Z,2.33
2017-11-04T00:47:11.815Z,2.33
2017-11-04T00:47:15.626Z,2.33
2017-11-04T00:47:19.570Z,2.34
2017-11-04T00:47:23.516Z,2.35
2017-11-04T00:47:27.757Z,2.33
2017-11-04T00:47:31.840Z,2.34
2017-11-04T00:47:35.925Z,2.35
2017-11-04T00:47:39.614Z,2.36
2017-11-04T00:47:43.441Z,2.35
2017-11-04T00:47:47.648Z,2.36
2017-11-04T00:47:51.726Z,2.37
2017-11-04T00:47:55.930Z,2.36
2017-11-04T00:48:00.014Z,2.36
2017-11-04T00:48:03.967Z,2.35
2017-11-04T00:48:08.305Z,2.36
2017-11-04T00:48:12.384Z,2.36
2017-11-04T00:48:16.343Z,2.37
2017-11-04T00:48:20.292Z,2.37
2017-11-04T00:48:24.370Z,2.37
2017-11-04T00:48:28.183Z,2.38
2017-11-04T00:48:32.290Z,2.38
2017-11-04T00:48:36.242Z,2.38
2017-11-04T00:48:40.059Z,2.38
2017-11-04T00:48:44.137Z,2.38
2017-11-04T00:48:48.220Z,2.38
2017-11-04T00:48:52.435Z,2.38
2017-11-04T00:48:56.648Z,2.38
2017-11-04T00:49:00.864Z,2.38
2017-11-04T00:49:05.071Z,2.37
2017-11-04T00:49:08.891Z,2.38
2017-11-04T00:49:12.704Z,2.37
2017-11-04T00:49:16.941Z,2.38
2017-11-04T00:49:21.153Z,2.38
2017-11-04T00:49:25.226Z,2.39
2017-11-04T00:49:29.439Z,2.39
2017-11-04T00:49:33.543Z,2.38
2017-11-04T00:49:37.354Z,2.39
2017-11-04T00:49:41.576Z,2.39
2017-11-04T00:49:45.652Z,2.4
2017-11-04T00:49:49.594Z,2.39
2017-11-04T00:49:53.538Z,2.39
2017-11-04T00:49:57.750Z,2.39
2017-11-04T00:50:01.830Z,2.39
2017-11-04T00:50:05.793Z,2.4
2017-11-04T00:50:10.016Z,2.39
2017-11-04T00:50:14.102Z,2.39
2017-11-04T00:50:18.174Z,2.39
2017-11-04T00:50:22.123Z,2.39
2017-11-04T00:50:26.358Z,2.4
2017-11-04T00:50:30.703Z,2.38
2017-11-04T00:50:34.524Z,2.4
2017-11-04T00:50:38.366Z,2.4
2017-11-04T00:50:42.578Z,2.4
2017-11-04T00:50:46.795Z,2.4
2017-11-04T00:50:50.873Z,2.39
2017-11-04T00:50:54.949Z,2.39
2017-11-04T00:50:59.047Z,2.4
2017-11-04T00:51:03.134Z,2.39
2017-11-04T00:51:07.503Z,2.39
2017-11-04T00:51:11.323Z,2.4
2017-11-04T00:51:15.405Z,2.41
2017-11-04T00:51:19.232Z,2.4
2017-11-04T00:51:23.306Z,2.39
2017-11-04T00:51:27.257Z,2.4
2017-11-04T00:51:31.475Z,2.41
2017-11-04T00:51:35.549Z,2.4
2017-11-04T00:51:39.767Z,2.41
2017-11-04T00:51:43.578Z,2.41
2017-11-04T00:51:47.522Z,2.4
2017-11-04T00:51:51.870Z,2.41
2017-11-04T00:51:55.550Z,2.4
2017-11-04T00:51:59.545Z,2.4
2017-11-04T00:52:03.497Z,2.41
2017-11-04T00:52:07.457Z,2.41
2017-11-04T00:52:11.803Z,2.4
2017-11-04T00:52:15.774Z,2.4
2017-11-04T00:52:19.997Z,2.4
2017-11-04T00:52:24.228Z,2.41
2017-11-04T00:52:28.441Z,2.4
2017-11-04T00:52:32.381Z,2.4
2017-11-04T00:52:36.333Z,2.41
2017-11-04T00:52:40.290Z,2.4
2017-11-04T00:52:44.371Z,2.39
2017-11-04T00:52:48.188Z,2.4
2017-11-04T00:52:52.003Z,2.4
2017-11-04T00:52:55.826Z,2.4
2017-11-04T00:53:00.032Z,2.4
2017-11-04T00:53:04.317Z,2.4
2017-11-04T00:53:08.397Z,2.41
2017-11-04T00:53:12.211Z,2.4
2017-11-04T00:53:16.160Z,2.39
2017-11-04T00:53:20.114Z,2.41
2017-11-04T00:53:24.063Z,2.4
2017-11-04T00:53:28.150Z,2.4
2017-11-04T00:53:31.832Z,2.39
2017-11-04T00:53:35.943Z,2.4
2017-11-04T00:53:40.150Z,2.39
2017-11-04T00:53:44.227Z,2.4
2017-11-04T00:53:48.174Z,2.41
2017-11-04T00:53:52.519Z,2.39
2017-11-04T00:53:56.596Z,2.39
2017-11-04T00:54:00.548Z,2.39
2017-11-04T00:54:04.776Z,2.39
2017-11-04T00:54:08.855Z,2.39
2017-11-04T00:54:12.954Z,2.39
2017-11-04T00:54:17.039Z,2.39
2017-11-04T00:54:20.855Z,2.39
2017-11-04T00:54:24.550Z,2.39
2017-11-04T00:54:28.491Z,2.38
2017-11-04T00:54:32.564Z,2.4
2017-11-04T00:54:36.512Z,2.39
2017-11-04T00:54:40.905Z,2.39
2017-11-04T00:54:44.849Z,2.39
2017-11-04T00:54:48.930Z,2.4